sensor_id;sensor_type;location;lat;lon;timestamp;temperature;humidity
23120;DHT22;11729;50.836;4.330;2024-02-16T00:00:48;15.20;99.90
23120;DHT22;11729;50.836;4.330;2024-02-16T00:03:14;15.20;99.90
23120;DHT22;11729;50.836;4.330;2024-02-16T00:05:39;15.30;99.90
23120;DHT22;11729;50.836;4.330;2024-02-16T00:08:05;15.20;99.90
23120;DHT22;11729;50.836;4.330;2024-02-16T00:10:30;15.20;99.90
23120;DHT22;11729;50.836;4.330;2024-02-16T00:12:56;15.10;99.90
23120;DHT22;11729;50.836;4.330;2024-02-16T00:15:22;15.20;99.90
23120;DHT22;11729;50.836;4.330;2024-02-16T00:17:49;15.10;99.90
23120;DHT22;11729;50.836;4.330;2024-02-16T00:20:14;15.10;99.90
23120;DHT22;11729;50.836;4.330;2024-02-16T00:22:41;15.10;99.90
23120;DHT22;11729;50.836;4.330;2024-02-16T00:25:07;15.10;99.90
23120;DHT22;11729;50.836;4.330;2024-02-16T00:27:32;15.10;99.90
23120;DHT22;11729;50.836;4.330;2024-02-16T00:29:58;15.20;99.90
23120;DHT22;11729;50.836;4.330;2024-02-16T00:32:24;15.10;99.90
23120;DHT22;11729;50.836;4.330;2024-02-16T00:34:55;15.20;99.90
23120;DHT22;11729;50.836;4.330;2024-02-16T00:37:20;15.20;99.90
23120;DHT22;11729;50.836;4.330;2024-02-16T00:39:46;15.20;99.90
23120;DHT22;11729;50.836;4.330;2024-02-16T00:42:12;15.10;99.90
23120;DHT22;11729;50.836;4.330;2024-02-16T00:44:38;15.10;99.90
23120;DHT22;11729;50.836;4.330;2024-02-16T00:47:04;15.00;99.90
23120;DHT22;11729;50.836;4.330;2024-02-16T00:49:35;15.10;99.90
23120;DHT22;11729;50.836;4.330;2024-02-16T00:52:00;15.10;99.90
23120;DHT22;11729;50.836;4.330;2024-02-16T00:54:27;15.00;99.90
23120;DHT22;11729;50.836;4.330;2024-02-16T00:56:53;15.10;99.90
23120;DHT22;11729;50.836;4.330;2024-02-16T00:59:20;15.00;99.90
23120;DHT22;11729;50.836;4.330;2024-02-16T01:01:46;15.10;99.90
23120;DHT22;11729;50.836;4.330;2024-02-16T01:04:12;15.00;99.90
23120;DHT22;11729;50.836;4.330;2024-02-16T01:06:38;15.10;99.90
23120;DHT22;11729;50.836;4.330;2024-02-16T01:09:03;15.10;99.90
23120;DHT22;11729;50.836;4.330;2024-02-16T01:11:29;15.10;99.90
23120;DHT22;11729;50.836;4.330;2024-02-16T01:13:55;15.10;99.90
23120;DHT22;11729;50.836;4.330;2024-02-16T01:16:20;15.10;99.90
23120;DHT22;11729;50.836;4.330;2024-02-16T01:18:46;15.10;99.90
23120;DHT22;11729;50.836;4.330;2024-02-16T01:21:12;15.00;99.90
23120;DHT22;11729;50.836;4.330;2024-02-16T01:23:38;15.00;99.90
23120;DHT22;11729;50.836;4.330;2024-02-16T01:26:04;15.10;99.90
23120;DHT22;11729;50.836;4.330;2024-02-16T01:28:30;15.10;99.90
23120;DHT22;11729;50.836;4.330;2024-02-16T01:30:55;15.10;99.90
23120;DHT22;11729;50.836;4.330;2024-02-16T01:33:24;15.10;99.90
23120;DHT22;11729;50.836;4.330;2024-02-16T01:35:49;15.10;99.90
23120;DHT22;11729;50.836;4.330;2024-02-16T01:38:15;15.00;99.90
23120;DHT22;11729;50.836;4.330;2024-02-16T01:40:41;15.00;99.90
23120;DHT22;11729;50.836;4.330;2024-02-16T01:43:06;15.00;99.90
23120;DHT22;11729;50.836;4.330;2024-02-16T01:45:32;15.00;99.90
23120;DHT22;11729;50.836;4.330;2024-02-16T01:47:58;15.00;99.90
23120;DHT22;11729;50.836;4.330;2024-02-16T01:50:25;15.10;99.90
23120;DHT22;11729;50.836;4.330;2024-02-16T01:52:50;15.00;99.90
23120;DHT22;11729;50.836;4.330;2024-02-16T01:55:17;15.10;99.90
23120;DHT22;11729;50.836;4.330;2024-02-16T01:57:44;15.10;99.90
23120;DHT22;11729;50.836;4.330;2024-02-16T02:00:11;15.10;99.90
23120;DHT22;11729;50.836;4.330;2024-02-16T02:02:37;15.10;99.90
23120;DHT22;11729;50.836;4.330;2024-02-16T02:05:03;15.00;99.90
23120;DHT22;11729;50.836;4.330;2024-02-16T02:07:29;15.00;99.90
23120;DHT22;11729;50.836;4.330;2024-02-16T02:09:56;15.00;99.90
23120;DHT22;11729;50.836;4.330;2024-02-16T02:12:22;15.00;99.90
23120;DHT22;11729;50.836;4.330;2024-02-16T02:14:49;15.00;99.90
23120;DHT22;11729;50.836;4.330;2024-02-16T02:17:15;15.00;99.90
23120;DHT22;11729;50.836;4.330;2024-02-16T02:19:41;15.00;99.90
23120;DHT22;11729;50.836;4.330;2024-02-16T02:22:16;15.00;99.90
23120;DHT22;11729;50.836;4.330;2024-02-16T02:24:43;15.00;99.90
23120;DHT22;11729;50.836;4.330;2024-02-16T02:27:10;15.10;99.90
23120;DHT22;11729;50.836;4.330;2024-02-16T02:29:35;15.10;99.90
23120;DHT22;11729;50.836;4.330;2024-02-16T02:32:01;15.10;99.90
23120;DHT22;11729;50.836;4.330;2024-02-16T02:34:27;15.10;99.90
23120;DHT22;11729;50.836;4.330;2024-02-16T02:36:53;15.10;99.90
23120;DHT22;11729;50.836;4.330;2024-02-16T02:39:19;15.10;99.90
23120;DHT22;11729;50.836;4.330;2024-02-16T02:41:44;15.10;99.90
23120;DHT22;11729;50.836;4.330;2024-02-16T02:44:10;15.10;99.90
23120;DHT22;11729;50.836;4.330;2024-02-16T02:46:36;15.10;99.90
23120;DHT22;11729;50.836;4.330;2024-02-16T02:49:02;15.20;99.90
23120;DHT22;11729;50.836;4.330;2024-02-16T02:51:29;15.20;99.90
23120;DHT22;11729;50.836;4.330;2024-02-16T02:53:55;15.20;99.90
23120;DHT22;11729;50.836;4.330;2024-02-16T02:56:20;15.30;99.90
23120;DHT22;11729;50.836;4.330;2024-02-16T02:58:46;15.20;99.90
23120;DHT22;11729;50.836;4.330;2024-02-16T03:01:12;15.20;99.90
23120;DHT22;11729;50.836;4.330;2024-02-16T03:03:39;15.20;99.90
23120;DHT22;11729;50.836;4.330;2024-02-16T03:06:06;15.20;99.90
23120;DHT22;11729;50.836;4.330;2024-02-16T03:08:32;15.10;99.90
23120;DHT22;11729;50.836;4.330;2024-02-16T03:10:58;15.10;99.90
23120;DHT22;11729;50.836;4.330;2024-02-16T03:13:27;15.10;99.90
23120;DHT22;11729;50.836;4.330;2024-02-16T03:15:53;15.20;99.90
23120;DHT22;11729;50.836;4.330;2024-02-16T03:18:20;15.20;99.90
23120;DHT22;11729;50.836;4.330;2024-02-16T03:20:46;15.20;99.90
23120;DHT22;11729;50.836;4.330;2024-02-16T03:23:15;15.10;99.90
23120;DHT22;11729;50.836;4.330;2024-02-16T03:25:41;15.10;99.90
23120;DHT22;11729;50.836;4.330;2024-02-16T03:28:12;15.20;99.90
23120;DHT22;11729;50.836;4.330;2024-02-16T03:30:38;15.10;99.90
23120;DHT22;11729;50.836;4.330;2024-02-16T03:33:04;15.10;99.90
23120;DHT22;11729;50.836;4.330;2024-02-16T03:35:30;15.10;99.90
23120;DHT22;11729;50.836;4.330;2024-02-16T03:37:55;15.10;99.90
23120;DHT22;11729;50.836;4.330;2024-02-16T03:40:23;15.10;99.90
23120;DHT22;11729;50.836;4.330;2024-02-16T03:42:50;15.10;99.90
23120;DHT22;11729;50.836;4.330;2024-02-16T03:45:17;15.20;99.90
23120;DHT22;11729;50.836;4.330;2024-02-16T03:47:43;15.20;99.90
23120;DHT22;11729;50.836;4.330;2024-02-16T03:50:09;15.20;99.90
23120;DHT22;11729;50.836;4.330;2024-02-16T03:52:35;15.20;99.90
23120;DHT22;11729;50.836;4.330;2024-02-16T03:55:01;15.30;99.90
23120;DHT22;11729;50.836;4.330;2024-02-16T03:57:26;15.30;99.90
23120;DHT22;11729;50.836;4.330;2024-02-16T03:59:52;15.20;99.90
23120;DHT22;11729;50.836;4.330;2024-02-16T04:02:19;15.30;99.90
23120;DHT22;11729;50.836;4.330;2024-02-16T04:04:44;15.30;99.90
23120;DHT22;11729;50.836;4.330;2024-02-16T04:07:10;15.30;99.90
23120;DHT22;11729;50.836;4.330;2024-02-16T04:09:36;15.40;99.90
23120;DHT22;11729;50.836;4.330;2024-02-16T04:12:02;15.40;99.90
23120;DHT22;11729;50.836;4.330;2024-02-16T04:14:32;15.40;99.90
23120;DHT22;11729;50.836;4.330;2024-02-16T04:16:59;15.40;99.90
23120;DHT22;11729;50.836;4.330;2024-02-16T04:19:28;15.40;99.90
23120;DHT22;11729;50.836;4.330;2024-02-16T04:21:54;15.30;99.90
23120;DHT22;11729;50.836;4.330;2024-02-16T04:24:20;15.40;99.90
23120;DHT22;11729;50.836;4.330;2024-02-16T04:26:46;15.40;99.90
23120;DHT22;11729;50.836;4.330;2024-02-16T04:29:12;15.40;99.90
23120;DHT22;11729;50.836;4.330;2024-02-16T04:31:41;15.40;99.90
23120;DHT22;11729;50.836;4.330;2024-02-16T04:34:08;15.40;99.90
23120;DHT22;11729;50.836;4.330;2024-02-16T04:36:34;15.30;99.90
23120;DHT22;11729;50.836;4.330;2024-02-16T04:39:01;15.30;99.90
23120;DHT22;11729;50.836;4.330;2024-02-16T04:41:27;15.30;99.90
23120;DHT22;11729;50.836;4.330;2024-02-16T04:43:52;15.30;99.90
23120;DHT22;11729;50.836;4.330;2024-02-16T04:46:18;15.30;99.90
23120;DHT22;11729;50.836;4.330;2024-02-16T04:48:44;15.40;99.90
23120;DHT22;11729;50.836;4.330;2024-02-16T04:51:13;15.50;99.90
23120;DHT22;11729;50.836;4.330;2024-02-16T04:53:40;15.50;99.90
23120;DHT22;11729;50.836;4.330;2024-02-16T04:56:06;15.60;99.90
23120;DHT22;11729;50.836;4.330;2024-02-16T04:58:32;15.40;99.90
23120;DHT22;11729;50.836;4.330;2024-02-16T05:00:57;15.30;99.90
23120;DHT22;11729;50.836;4.330;2024-02-16T05:03:23;15.40;99.90
23120;DHT22;11729;50.836;4.330;2024-02-16T05:05:50;15.30;99.90
23120;DHT22;11729;50.836;4.330;2024-02-16T05:08:17;15.40;99.90
23120;DHT22;11729;50.836;4.330;2024-02-16T05:10:42;15.40;99.90
23120;DHT22;11729;50.836;4.330;2024-02-16T05:13:08;15.50;99.90
23120;DHT22;11729;50.836;4.330;2024-02-16T05:15:34;15.60;99.90
23120;DHT22;11729;50.836;4.330;2024-02-16T05:17:59;15.60;99.90
23120;DHT22;11729;50.836;4.330;2024-02-16T05:20:26;15.70;99.90
23120;DHT22;11729;50.836;4.330;2024-02-16T05:22:52;15.70;99.90
23120;DHT22;11729;50.836;4.330;2024-02-16T05:25:18;15.60;99.90
23120;DHT22;11729;50.836;4.330;2024-02-16T05:27:45;15.60;99.90
23120;DHT22;11729;50.836;4.330;2024-02-16T05:30:12;15.60;99.90
23120;DHT22;11729;50.836;4.330;2024-02-16T05:32:41;15.50;99.90
23120;DHT22;11729;50.836;4.330;2024-02-16T05:35:08;15.70;99.90
23120;DHT22;11729;50.836;4.330;2024-02-16T05:37:40;15.70;99.90
23120;DHT22;11729;50.836;4.330;2024-02-16T05:40:10;15.70;99.90
23120;DHT22;11729;50.836;4.330;2024-02-16T05:42:51;15.70;99.90
23120;DHT22;11729;50.836;4.330;2024-02-16T05:45:17;15.70;99.90
23120;DHT22;11729;50.836;4.330;2024-02-16T05:47:45;15.70;99.90
23120;DHT22;11729;50.836;4.330;2024-02-16T05:50:11;15.60;99.90
23120;DHT22;11729;50.836;4.330;2024-02-16T05:52:38;15.50;99.90
23120;DHT22;11729;50.836;4.330;2024-02-16T05:55:05;15.50;99.90
23120;DHT22;11729;50.836;4.330;2024-02-16T05:57:31;15.60;99.90
23120;DHT22;11729;50.836;4.330;2024-02-16T05:59:57;15.70;99.90
23120;DHT22;11729;50.836;4.330;2024-02-16T06:02:23;15.50;99.90
23120;DHT22;11729;50.836;4.330;2024-02-16T06:04:51;15.50;99.90
23120;DHT22;11729;50.836;4.330;2024-02-16T06:07:17;15.60;99.90
23120;DHT22;11729;50.836;4.330;2024-02-16T06:09:42;15.60;99.90
23120;DHT22;11729;50.836;4.330;2024-02-16T06:12:08;15.60;99.90
23120;DHT22;11729;50.836;4.330;2024-02-16T06:14:35;15.50;99.90
23120;DHT22;11729;50.836;4.330;2024-02-16T06:17:02;15.50;99.90
23120;DHT22;11729;50.836;4.330;2024-02-16T06:19:28;15.40;99.90
23120;DHT22;11729;50.836;4.330;2024-02-16T06:21:55;15.30;99.90
23120;DHT22;11729;50.836;4.330;2024-02-16T06:24:22;15.20;99.90
23120;DHT22;11729;50.836;4.330;2024-02-16T06:26:48;15.20;99.90
23120;DHT22;11729;50.836;4.330;2024-02-16T06:29:14;15.20;99.90
23120;DHT22;11729;50.836;4.330;2024-02-16T06:31:39;15.00;99.90
23120;DHT22;11729;50.836;4.330;2024-02-16T06:34:05;14.90;99.90
23120;DHT22;11729;50.836;4.330;2024-02-16T06:36:31;14.80;99.90
23120;DHT22;11729;50.836;4.330;2024-02-16T06:38:58;14.80;99.90
23120;DHT22;11729;50.836;4.330;2024-02-16T06:41:24;14.80;99.90
23120;DHT22;11729;50.836;4.330;2024-02-16T06:43:50;15.00;99.90
23120;DHT22;11729;50.836;4.330;2024-02-16T06:46:16;15.00;99.90
23120;DHT22;11729;50.836;4.330;2024-02-16T06:48:42;14.80;99.90
23120;DHT22;11729;50.836;4.330;2024-02-16T06:51:08;14.70;99.90
23120;DHT22;11729;50.836;4.330;2024-02-16T06:53:33;14.60;99.90
23120;DHT22;11729;50.836;4.330;2024-02-16T06:55:59;14.60;99.90
23120;DHT22;11729;50.836;4.330;2024-02-16T06:58:24;14.50;99.90
23120;DHT22;11729;50.836;4.330;2024-02-16T07:00:50;14.50;99.90
23120;DHT22;11729;50.836;4.330;2024-02-16T07:03:16;14.60;99.90
23120;DHT22;11729;50.836;4.330;2024-02-16T07:05:42;14.60;99.90
23120;DHT22;11729;50.836;4.330;2024-02-16T07:08:08;14.60;99.90
23120;DHT22;11729;50.836;4.330;2024-02-16T07:10:34;14.60;99.90
23120;DHT22;11729;50.836;4.330;2024-02-16T07:13:00;14.70;99.90
23120;DHT22;11729;50.836;4.330;2024-02-16T07:15:26;14.70;99.90
23120;DHT22;11729;50.836;4.330;2024-02-16T07:17:53;14.70;99.90
23120;DHT22;11729;50.836;4.330;2024-02-16T07:20:18;14.70;99.90
23120;DHT22;11729;50.836;4.330;2024-02-16T07:22:45;14.70;99.90
23120;DHT22;11729;50.836;4.330;2024-02-16T07:25:15;14.60;99.90
23120;DHT22;11729;50.836;4.330;2024-02-16T07:27:41;14.60;99.90
23120;DHT22;11729;50.836;4.330;2024-02-16T07:30:07;14.60;99.90
23120;DHT22;11729;50.836;4.330;2024-02-16T07:32:33;14.60;99.90
23120;DHT22;11729;50.836;4.330;2024-02-16T07:35:00;14.70;99.90
23120;DHT22;11729;50.836;4.330;2024-02-16T07:37:25;14.70;99.90
23120;DHT22;11729;50.836;4.330;2024-02-16T07:39:51;14.80;99.90
23120;DHT22;11729;50.836;4.330;2024-02-16T07:42:17;14.70;99.90
23120;DHT22;11729;50.836;4.330;2024-02-16T07:44:43;14.80;99.90
23120;DHT22;11729;50.836;4.330;2024-02-16T07:47:08;14.90;99.90
23120;DHT22;11729;50.836;4.330;2024-02-16T07:49:38;14.90;99.90
23120;DHT22;11729;50.836;4.330;2024-02-16T07:52:04;14.90;99.90
23120;DHT22;11729;50.836;4.330;2024-02-16T07:54:35;14.80;99.90
23120;DHT22;11729;50.836;4.330;2024-02-16T07:57:01;14.90;99.90
23120;DHT22;11729;50.836;4.330;2024-02-16T07:59:27;14.90;99.90
23120;DHT22;11729;50.836;4.330;2024-02-16T08:01:52;14.90;99.90
23120;DHT22;11729;50.836;4.330;2024-02-16T08:04:18;15.00;99.90
23120;DHT22;11729;50.836;4.330;2024-02-16T08:06:44;15.00;99.90
23120;DHT22;11729;50.836;4.330;2024-02-16T08:09:09;15.00;99.90
23120;DHT22;11729;50.836;4.330;2024-02-16T08:11:36;15.00;99.90
23120;DHT22;11729;50.836;4.330;2024-02-16T08:14:02;14.90;99.90
23120;DHT22;11729;50.836;4.330;2024-02-16T08:16:28;15.00;99.90
23120;DHT22;11729;50.836;4.330;2024-02-16T08:18:55;15.00;99.90
23120;DHT22;11729;50.836;4.330;2024-02-16T08:21:21;15.10;99.90
23120;DHT22;11729;50.836;4.330;2024-02-16T08:23:47;15.20;99.90
23120;DHT22;11729;50.836;4.330;2024-02-16T08:26:13;15.20;99.90
23120;DHT22;11729;50.836;4.330;2024-02-16T08:28:39;15.10;99.90
23120;DHT22;11729;50.836;4.330;2024-02-16T08:31:07;15.00;99.90
23120;DHT22;11729;50.836;4.330;2024-02-16T08:33:32;15.00;99.90
23120;DHT22;11729;50.836;4.330;2024-02-16T08:36:03;14.90;99.90
23120;DHT22;11729;50.836;4.330;2024-02-16T08:38:31;14.70;99.90
23120;DHT22;11729;50.836;4.330;2024-02-16T08:40:57;14.50;99.90
23120;DHT22;11729;50.836;4.330;2024-02-16T08:43:22;14.50;99.90
23120;DHT22;11729;50.836;4.330;2024-02-16T08:45:48;14.40;99.90
23120;DHT22;11729;50.836;4.330;2024-02-16T08:48:14;14.40;99.90
23120;DHT22;11729;50.836;4.330;2024-02-16T08:50:39;14.40;99.90
23120;DHT22;11729;50.836;4.330;2024-02-16T08:53:06;14.30;99.90
23120;DHT22;11729;50.836;4.330;2024-02-16T08:55:33;14.30;99.90
23120;DHT22;11729;50.836;4.330;2024-02-16T08:57:58;14.30;99.90
23120;DHT22;11729;50.836;4.330;2024-02-16T09:00:24;14.20;99.90
23120;DHT22;11729;50.836;4.330;2024-02-16T09:02:52;14.40;99.90
23120;DHT22;11729;50.836;4.330;2024-02-16T09:05:19;14.50;99.90
23120;DHT22;11729;50.836;4.330;2024-02-16T09:07:45;14.40;99.90
23120;DHT22;11729;50.836;4.330;2024-02-16T09:10:13;14.50;99.90
23120;DHT22;11729;50.836;4.330;2024-02-16T09:12:39;14.50;99.90
23120;DHT22;11729;50.836;4.330;2024-02-16T09:15:06;14.60;99.90
23120;DHT22;11729;50.836;4.330;2024-02-16T09:17:32;14.50;99.90
23120;DHT22;11729;50.836;4.330;2024-02-16T09:19:57;14.50;99.90
23120;DHT22;11729;50.836;4.330;2024-02-16T09:22:23;14.50;99.90
23120;DHT22;11729;50.836;4.330;2024-02-16T09:24:49;14.50;99.90
23120;DHT22;11729;50.836;4.330;2024-02-16T09:27:14;14.50;99.90
23120;DHT22;11729;50.836;4.330;2024-02-16T09:29:40;14.60;99.90
23120;DHT22;11729;50.836;4.330;2024-02-16T09:32:06;14.70;99.90
23120;DHT22;11729;50.836;4.330;2024-02-16T09:34:32;14.70;99.90
23120;DHT22;11729;50.836;4.330;2024-02-16T09:36:58;14.70;99.90
23120;DHT22;11729;50.836;4.330;2024-02-16T09:39:24;14.70;99.90
23120;DHT22;11729;50.836;4.330;2024-02-16T09:41:53;14.70;99.90
23120;DHT22;11729;50.836;4.330;2024-02-16T09:44:20;14.60;99.90
23120;DHT22;11729;50.836;4.330;2024-02-16T09:46:48;14.50;99.90
23120;DHT22;11729;50.836;4.330;2024-02-16T09:49:17;14.50;99.90
23120;DHT22;11729;50.836;4.330;2024-02-16T09:51:44;14.50;99.90
23120;DHT22;11729;50.836;4.330;2024-02-16T09:54:10;14.40;99.90
23120;DHT22;11729;50.836;4.330;2024-02-16T09:56:35;14.50;99.90
23120;DHT22;11729;50.836;4.330;2024-02-16T09:59:01;14.60;99.90
23120;DHT22;11729;50.836;4.330;2024-02-16T10:01:26;14.60;99.90
23120;DHT22;11729;50.836;4.330;2024-02-16T10:03:53;14.50;99.90
23120;DHT22;11729;50.836;4.330;2024-02-16T10:06:19;14.50;99.90
23120;DHT22;11729;50.836;4.330;2024-02-16T10:08:49;14.40;99.90
23120;DHT22;11729;50.836;4.330;2024-02-16T10:11:17;14.50;99.90
23120;DHT22;11729;50.836;4.330;2024-02-16T10:13:59;14.50;99.90
23120;DHT22;11729;50.836;4.330;2024-02-16T10:16:27;14.60;99.90
23120;DHT22;11729;50.836;4.330;2024-02-16T10:18:56;14.60;99.90
23120;DHT22;11729;50.836;4.330;2024-02-16T10:21:28;14.70;99.90
23120;DHT22;11729;50.836;4.330;2024-02-16T10:24:00;14.70;99.90
23120;DHT22;11729;50.836;4.330;2024-02-16T10:26:27;14.70;99.90
23120;DHT22;11729;50.836;4.330;2024-02-16T10:28:55;14.70;99.90
23120;DHT22;11729;50.836;4.330;2024-02-16T10:31:23;14.70;99.90
23120;DHT22;11729;50.836;4.330;2024-02-16T10:34:02;14.80;99.90
23120;DHT22;11729;50.836;4.330;2024-02-16T10:36:33;14.70;99.90
23120;DHT22;11729;50.836;4.330;2024-02-16T10:39:00;14.60;99.90
23120;DHT22;11729;50.836;4.330;2024-02-16T10:41:35;14.60;99.90
23120;DHT22;11729;50.836;4.330;2024-02-16T10:44:01;14.50;99.90
23120;DHT22;11729;50.836;4.330;2024-02-16T10:46:27;14.70;99.90
23120;DHT22;11729;50.836;4.330;2024-02-16T10:48:53;14.70;99.90
23120;DHT22;11729;50.836;4.330;2024-02-16T10:54:07;14.70;99.90
23120;DHT22;11729;50.836;4.330;2024-02-16T10:56:35;14.70;99.90
23120;DHT22;11729;50.836;4.330;2024-02-16T10:59:07;14.70;99.90
23120;DHT22;11729;50.836;4.330;2024-02-16T11:01:43;14.70;99.90
23120;DHT22;11729;50.836;4.330;2024-02-16T11:04:19;14.70;99.90
23120;DHT22;11729;50.836;4.330;2024-02-16T11:06:52;14.70;99.90
23120;DHT22;11729;50.836;4.330;2024-02-16T11:09:28;14.60;99.90
23120;DHT22;11729;50.836;4.330;2024-02-16T11:11:58;14.50;99.90
23120;DHT22;11729;50.836;4.330;2024-02-16T11:14:40;14.60;99.90
23120;DHT22;11729;50.836;4.330;2024-02-16T11:17:23;14.60;99.90
23120;DHT22;11729;50.836;4.330;2024-02-16T11:19:49;14.70;99.90
23120;DHT22;11729;50.836;4.330;2024-02-16T11:22:16;14.60;99.90
23120;DHT22;11729;50.836;4.330;2024-02-16T11:24:44;14.60;99.90
23120;DHT22;11729;50.836;4.330;2024-02-16T11:27:11;14.70;99.90
23120;DHT22;11729;50.836;4.330;2024-02-16T11:29:38;14.70;99.90
23120;DHT22;11729;50.836;4.330;2024-02-16T11:32:05;14.40;99.90
23120;DHT22;11729;50.836;4.330;2024-02-16T11:34:32;14.40;99.90
23120;DHT22;11729;50.836;4.330;2024-02-16T11:37:01;14.30;99.90
23120;DHT22;11729;50.836;4.330;2024-02-16T11:39:27;14.30;99.90
23120;DHT22;11729;50.836;4.330;2024-02-16T11:42:12;14.30;99.90
23120;DHT22;11729;50.836;4.330;2024-02-16T11:44:50;14.30;99.90
23120;DHT22;11729;50.836;4.330;2024-02-16T11:47:19;14.30;99.90
23120;DHT22;11729;50.836;4.330;2024-02-16T11:49:48;14.30;99.90
23120;DHT22;11729;50.836;4.330;2024-02-16T11:52:14;14.50;99.90
23120;DHT22;11729;50.836;4.330;2024-02-16T11:54:44;14.50;99.90
23120;DHT22;11729;50.836;4.330;2024-02-16T11:57:09;14.60;99.90
23120;DHT22;11729;50.836;4.330;2024-02-16T11:59:35;14.50;99.90
23120;DHT22;11729;50.836;4.330;2024-02-16T12:02:01;14.40;99.90
23120;DHT22;11729;50.836;4.330;2024-02-16T12:04:30;14.50;99.90
23120;DHT22;11729;50.836;4.330;2024-02-16T12:06:56;14.50;99.90
23120;DHT22;11729;50.836;4.330;2024-02-16T12:09:23;14.40;99.90
23120;DHT22;11729;50.836;4.330;2024-02-16T12:11:51;14.40;99.90
23120;DHT22;11729;50.836;4.330;2024-02-16T12:14:18;14.40;99.90
23120;DHT22;11729;50.836;4.330;2024-02-16T12:16:47;14.30;99.90
23120;DHT22;11729;50.836;4.330;2024-02-16T12:19:14;14.10;99.90
23120;DHT22;11729;50.836;4.330;2024-02-16T12:21:39;14.00;99.90
23120;DHT22;11729;50.836;4.330;2024-02-16T12:24:06;14.00;99.90
23120;DHT22;11729;50.836;4.330;2024-02-16T12:26:31;14.00;99.90
23120;DHT22;11729;50.836;4.330;2024-02-16T12:28:57;14.10;99.90
23120;DHT22;11729;50.836;4.330;2024-02-16T12:31:23;14.10;99.90
23120;DHT22;11729;50.836;4.330;2024-02-16T12:33:49;14.00;99.90
23120;DHT22;11729;50.836;4.330;2024-02-16T12:36:15;14.10;99.90
23120;DHT22;11729;50.836;4.330;2024-02-16T12:38:45;14.00;99.90
23120;DHT22;11729;50.836;4.330;2024-02-16T12:41:11;14.10;99.90
23120;DHT22;11729;50.836;4.330;2024-02-16T12:43:36;14.10;99.90
23120;DHT22;11729;50.836;4.330;2024-02-16T12:46:02;14.30;99.90
23120;DHT22;11729;50.836;4.330;2024-02-16T12:48:29;14.10;99.90
23120;DHT22;11729;50.836;4.330;2024-02-16T12:50:58;14.00;99.90
23120;DHT22;11729;50.836;4.330;2024-02-16T12:53:23;14.10;99.90
23120;DHT22;11729;50.836;4.330;2024-02-16T12:55:51;14.10;99.90
23120;DHT22;11729;50.836;4.330;2024-02-16T12:58:16;14.30;99.90
23120;DHT22;11729;50.836;4.330;2024-02-16T13:00:42;14.20;99.90
23120;DHT22;11729;50.836;4.330;2024-02-16T13:03:08;14.20;99.90
23120;DHT22;11729;50.836;4.330;2024-02-16T13:05:34;14.10;99.90
23120;DHT22;11729;50.836;4.330;2024-02-16T13:08:00;14.10;99.90
23120;DHT22;11729;50.836;4.330;2024-02-16T13:10:25;14.00;99.90
23120;DHT22;11729;50.836;4.330;2024-02-16T13:12:51;14.00;99.90
23120;DHT22;11729;50.836;4.330;2024-02-16T13:15:18;14.10;99.90
23120;DHT22;11729;50.836;4.330;2024-02-16T13:17:44;14.30;99.90
23120;DHT22;11729;50.836;4.330;2024-02-16T13:20:10;14.30;99.90
23120;DHT22;11729;50.836;4.330;2024-02-16T13:22:36;14.10;99.90
23120;DHT22;11729;50.836;4.330;2024-02-16T13:25:03;14.10;99.90
23120;DHT22;11729;50.836;4.330;2024-02-16T13:27:29;14.20;99.90
23120;DHT22;11729;50.836;4.330;2024-02-16T13:29:55;14.30;99.90
23120;DHT22;11729;50.836;4.330;2024-02-16T13:32:21;14.40;99.90
23120;DHT22;11729;50.836;4.330;2024-02-16T13:34:48;14.60;99.90
23120;DHT22;11729;50.836;4.330;2024-02-16T13:37:13;14.60;99.90
23120;DHT22;11729;50.836;4.330;2024-02-16T13:39:39;14.60;99.90
23120;DHT22;11729;50.836;4.330;2024-02-16T13:42:06;14.50;99.90
23120;DHT22;11729;50.836;4.330;2024-02-16T13:44:32;14.50;99.90
23120;DHT22;11729;50.836;4.330;2024-02-16T13:46:57;14.70;99.90
23120;DHT22;11729;50.836;4.330;2024-02-16T13:49:23;14.60;99.90
23120;DHT22;11729;50.836;4.330;2024-02-16T13:51:50;14.70;99.90
23120;DHT22;11729;50.836;4.330;2024-02-16T13:54:15;14.70;99.90
23120;DHT22;11729;50.836;4.330;2024-02-16T13:56:43;15.00;99.90
23120;DHT22;11729;50.836;4.330;2024-02-16T13:59:08;15.20;99.90
23120;DHT22;11729;50.836;4.330;2024-02-16T14:01:34;15.30;99.90
23120;DHT22;11729;50.836;4.330;2024-02-16T14:04:01;15.30;99.90
23120;DHT22;11729;50.836;4.330;2024-02-16T14:06:33;15.40;99.90
23120;DHT22;11729;50.836;4.330;2024-02-16T14:08:58;15.70;99.90
23120;DHT22;11729;50.836;4.330;2024-02-16T14:11:24;15.70;99.90
23120;DHT22;11729;50.836;4.330;2024-02-16T14:13:50;15.60;99.90
23120;DHT22;11729;50.836;4.330;2024-02-16T14:16:16;15.60;99.90
23120;DHT22;11729;50.836;4.330;2024-02-16T14:18:41;15.50;99.90
23120;DHT22;11729;50.836;4.330;2024-02-16T14:21:07;15.50;99.90
23120;DHT22;11729;50.836;4.330;2024-02-16T14:23:33;15.80;99.90
23120;DHT22;11729;50.836;4.330;2024-02-16T14:25:59;15.70;99.90
23120;DHT22;11729;50.836;4.330;2024-02-16T14:28:25;15.60;99.90
23120;DHT22;11729;50.836;4.330;2024-02-16T14:30:50;15.60;99.90
23120;DHT22;11729;50.836;4.330;2024-02-16T14:33:16;15.40;99.90
23120;DHT22;11729;50.836;4.330;2024-02-16T14:35:43;15.60;99.90
23120;DHT22;11729;50.836;4.330;2024-02-16T14:38:08;15.60;99.90
23120;DHT22;11729;50.836;4.330;2024-02-16T14:40:34;15.80;99.90
23120;DHT22;11729;50.836;4.330;2024-02-16T14:43:01;16.00;99.90
23120;DHT22;11729;50.836;4.330;2024-02-16T14:45:28;15.80;99.90
23120;DHT22;11729;50.836;4.330;2024-02-16T14:47:54;15.50;99.90
23120;DHT22;11729;50.836;4.330;2024-02-16T14:50:19;15.60;99.90
23120;DHT22;11729;50.836;4.330;2024-02-16T14:52:45;15.70;99.90
23120;DHT22;11729;50.836;4.330;2024-02-16T14:55:11;15.80;99.90
23120;DHT22;11729;50.836;4.330;2024-02-16T14:57:42;15.90;99.90
23120;DHT22;11729;50.836;4.330;2024-02-16T15:00:09;15.80;99.90
23120;DHT22;11729;50.836;4.330;2024-02-16T15:02:36;16.10;99.90
23120;DHT22;11729;50.836;4.330;2024-02-16T15:05:07;16.20;99.90
23120;DHT22;11729;50.836;4.330;2024-02-16T15:07:33;16.00;99.90
23120;DHT22;11729;50.836;4.330;2024-02-16T15:09:59;15.70;99.90
23120;DHT22;11729;50.836;4.330;2024-02-16T15:12:25;16.00;99.90
23120;DHT22;11729;50.836;4.330;2024-02-16T15:14:50;16.00;99.90
23120;DHT22;11729;50.836;4.330;2024-02-16T15:17:16;15.80;99.90
23120;DHT22;11729;50.836;4.330;2024-02-16T15:19:46;15.90;99.90
23120;DHT22;11729;50.836;4.330;2024-02-16T15:22:11;15.60;99.90
23120;DHT22;11729;50.836;4.330;2024-02-16T15:24:37;15.70;99.90
23120;DHT22;11729;50.836;4.330;2024-02-16T15:27:03;15.80;99.90
23120;DHT22;11729;50.836;4.330;2024-02-16T15:29:30;15.70;99.90